Nome の空港の天気 - METARとTAF

Nome, Nome Airport ( PAOM / OME ) - アメリカ アラスカ州Nome
飛行場実況気象(Metar)
観測時間10/15 23:53 AKDT (10/16 07:53 UTC)
風向・風速東 7m/s
視程10km以上
天気現象
少しの雲 雲底高度 1010m
全天を覆う雲 雲底高度 1460m
気温-1.1℃
湿度66%
気圧990.2hPa
METARPAOM 160753Z AUTO 08013KT 10SM FEW033 OVC048 M01/M07 A2924 RMK AO2 SLP902 T10111067 TSNO $
過去の天気等 Google飛行場航空写真 Wunderground天気予報

過去48時間のMETAR

飛行場予報(TAF)
発表時間: 10/15 21:39 AKDT (10/16 05:39 UTC)
予報対象時間: 15日22時 AKDT ~ 16日22時 AKDT
風向・風速東北東 6m/s
視程10km以上
全天の4割程度の雲 雲底高度 3050m
全天の8割程度の雲 雲底高度 6100m
16日2時 AKDT から
風向・風速東 6m/s
視程10km以上
全天の8割程度の雲 雲底高度 2130m
16日4時 AKDT から
風向・風速東 5m/s
視程10km以上
天気現象周辺でしゅう雨
全天を覆う雲 雲底高度 1520m
PAOM 160539Z 1606/1706 07012KT P6SM SCT100 BKN200
FM161000 08011KT P6SM BKN070
FM161200 09010KT P6SM VCSH OVC050